Time;durP1;ratioP1;P1;durP2;ratioP2;P2;SDS_P1;SDS_P2;PMS_P1;PMS_P2;Temp;Humidity;BMP_temperature;BMP_pressure;BME280_temperature;BME280_humidity;BME280_pressure;Samples;Min_cycle;Max_cycle;Signal;HPM_P1;HPM_P2
2022/09/11 00:01:34;;;;;;;0.50;0.50;;;15.90;79.80;;;15.91;66.16;94787.94;5013404;28;20216;-80
2022/09/11 00:04:02;;;;;;;0.60;0.60;;;15.90;79.90;;;15.90;66.15;94790.81;5027122;28;20639;-80
2022/09/11 00:06:30;;;;;;;0.60;0.60;;;15.90;79.80;;;15.89;66.19;94789.19;4980583;28;20707;-80
2022/09/11 00:09:02;;;;;;;0.60;0.60;;;15.90;79.80;;;15.81;66.21;94788.47;5003483;28;20212;-80
2022/09/11 00:11:42;;;;;;;0.60;0.60;;;15.90;79.80;;;15.78;65.83;94783.66;5016029;28;20224;-81
2022/09/11 00:14:12;;;;;;;0.70;0.70;;;15.90;79.80;;;15.79;65.66;94779.94;5016619;28;20208;-81
2022/09/11 00:16:44;;;;;;;0.60;0.60;;;15.80;79.60;;;15.76;66.08;94784.88;5024042;28;20235;-81
2022/09/11 00:19:18;;;;;;;0.70;0.70;;;15.80;79.70;;;15.72;66.25;94784.56;4996600;28;20219;-80
2022/09/11 00:21:46;;;;;;;0.50;0.50;;;15.80;79.70;;;15.71;66.04;94780.31;5013989;28;20216;-80
2022/09/11 00:24:13;;;;;;;0.60;0.60;;;15.70;79.60;;;15.68;65.89;94780.75;5031061;28;20196;-81
2022/09/11 00:26:41;;;;;;;0.50;0.50;;;15.70;79.70;;;15.65;66.69;94783.84;5016454;28;20223;-80
2022/09/11 00:29:09;;;;;;;0.60;0.60;;;15.70;79.80;;;15.67;66.05;94781.78;5010143;28;20201;-81
2022/09/11 00:31:36;;;;;;;0.60;0.60;;;15.70;80.00;;;15.62;66.18;94774.50;5004937;28;20220;-80
2022/09/11 00:34:05;;;;;;;0.50;0.50;;;15.70;80.10;;;15.71;66.72;94785.59;5000626;28;20201;-82
2022/09/11 00:36:35;;;;;;;0.70;0.70;;;15.70;80.20;;;15.71;66.21;94785.59;4994499;28;20228;-81
2022/09/11 00:39:03;;;;;;;0.50;0.50;;;15.70;80.10;;;15.74;66.44;94777.19;4994679;28;20658;-81
2022/09/11 00:41:35;;;;;;;0.50;0.50;;;15.70;80.20;;;15.74;66.18;94771.91;5009011;28;20220;-80
2022/09/11 00:44:27;;;;;;;0.60;0.60;;;15.70;80.00;;;15.69;66.24;94775.22;5004531;28;20218;-80
2022/09/11 00:46:59;;;;;;;0.60;0.60;;;15.70;79.90;;;15.68;65.86;94775.44;5029884;28;20224;-81
2022/09/11 00:49:38;;;;;;;0.60;0.60;;;15.70;79.70;;;15.62;65.58;94765.78;5029629;28;20668;-80
2022/09/11 00:52:12;;;;;;;0.50;0.50;;;15.60;79.60;;;15.58;65.42;94776.00;5014662;28;20690;-80
2022/09/11 00:54:56;;;;;;;0.60;0.60;;;15.60;79.60;;;15.52;65.88;94775.06;5015225;28;20270;-81
2022/09/11 00:57:29;;;;;;;0.55;0.55;;;15.60;79.80;;;15.48;66.03;94767.84;5009896;28;20221;-80
2022/09/11 00:59:58;;;;;;;0.50;0.50;;;15.50;79.60;;;15.40;66.04;94766.31;5010596;28;20573;-81
2022/09/11 01:02:29;;;;;;;0.75;0.75;;;15.40;79.60;;;15.40;65.65;94768.16;5009338;28;20220;-80
2022/09/11 01:04:57;;;;;;;0.60;0.60;;;15.40;80.00;;;15.32;65.46;94764.00;4995079;28;20192;-81
2022/09/11 01:07:26;;;;;;;0.80;0.80;;;15.40;79.80;;;15.32;65.52;94771.94;5010256;28;20231;-81
2022/09/11 01:09:54;;;;;;;0.63;0.63;;;15.40;79.90;;;15.29;65.83;94765.22;4989471;28;20679;-81
2022/09/11 01:13:00;;;;;;;0.60;0.60;;;15.30;79.90;;;15.25;65.89;94774.66;4995898;28;20225;-80
2022/09/11 01:15:37;;;;;;;0.60;0.60;;;15.20;79.90;;;15.21;65.79;94773.50;5009894;28;20219;-80
2022/09/11 01:18:47;;;;;;;0.75;0.75;;;15.20;80.60;;;15.15;66.13;94761.97;5011885;28;20694;-80
2022/09/11 01:21:41;;;;;;;0.60;0.60;;;15.20;80.10;;;15.12;65.71;94764.25;5012062;28;20227;-81
2022/09/11 01:24:34;;;;;;;0.60;0.60;;;15.10;80.00;;;15.07;65.87;94764.91;5014221;28;20187;-81
2022/09/11 01:27:39;;;;;;;0.60;0.60;;;15.10;80.00;;;15.00;66.24;94765.03;4999234;28;20239;-80
2022/09/11 01:30:32;;;;;;;0.60;0.60;;;15.00;79.80;;;14.96;66.61;94768.31;5011739;28;20205;-81
2022/09/11 01:33:24;;;;;;;0.60;0.60;;;15.00;80.00;;;14.93;66.80;94763.47;5004237;28;20225;-80
2022/09/11 01:36:17;;;;;;;0.60;0.60;;;15.00;80.30;;;14.92;66.50;94764.53;5011332;28;20869;-80
2022/09/11 01:38:50;;;;;;;0.60;0.60;;;14.90;80.20;;;14.91;66.09;94758.44;4979276;28;20218;-81
2022/09/11 01:41:29;;;;;;;0.60;0.60;;;14.90;80.20;;;14.90;66.25;94762.09;5011778;28;20229;-81
2022/09/11 01:44:06;;;;;;;0.60;0.60;;;14.90;80.30;;;14.87;66.31;94757.25;5027427;28;20203;-81
2022/09/11 01:46:42;;;;;;;0.50;0.50;;;14.90;80.40;;;14.83;66.94;94756.91;5009069;28;20678;-80
2022/09/11 01:49:35;;;;;;;0.80;0.80;;;14.90;80.50;;;14.82;66.52;94757.94;5015703;28;20214;-81
2022/09/11 01:52:08;;;;;;;0.80;0.80;;;14.90;80.50;;;14.84;66.48;94765.63;5002628;28;20603;-81
2022/09/11 01:54:45;;;;;;;0.50;0.50;;;14.90;80.30;;;14.81;66.12;94766.88;5012293;28;20200;-79
2022/09/11 01:57:31;;;;;;;0.80;0.80;;;14.80;80.30;;;14.79;66.21;94765.47;5010641;28;20227;-81
2022/09/11 02:00:06;;;;;;;0.60;0.60;;;14.80;80.20;;;14.77;66.85;94762.25;5020746;28;20659;-80
2022/09/11 02:02:51;;;;;;;0.70;0.70;;;14.80;80.50;;;14.75;67.09;94759.84;5025357;28;20741;-80
2022/09/11 02:05:30;;;;;;;0.80;0.80;;;14.80;80.70;;;14.77;66.89;94757.78;5012579;28;20295;-80
2022/09/11 02:08:15;;;;;;;0.60;0.60;;;14.80;80.80;;;14.78;66.60;94755.94;5013116;28;20224;-80
2022/09/11 02:10:51;;;;;;;0.50;0.50;;;14.80;80.80;;;14.79;66.67;94754.94;5031375;28;20299;-81
2022/09/11 02:13:30;;;;;;;0.70;0.70;;;14.70;80.90;;;14.76;67.20;94750.91;5022488;28;20202;-81
2022/09/11 02:16:24;;;;;;;0.60;0.60;;;14.70;80.90;;;14.79;67.51;94753.06;5031366;28;20666;-80
2022/09/11 02:19:16;;;;;;;0.50;0.50;;;14.80;81.40;;;14.83;67.80;94748.97;5024413;28;20241;-80
2022/09/11 02:21:46;;;;;;;0.60;0.60;;;14.80;81.70;;;14.92;67.56;94743.41;5004855;28;20235;-81
2022/09/11 02:24:15;;;;;;;0.60;0.60;;;14.90;81.60;;;14.99;67.45;94750.19;5009226;28;20207;-81
2022/09/11 02:26:51;;;;;;;0.60;0.60;;;14.90;81.60;;;15.03;67.51;94743.44;5014769;28;20238;-79
2022/09/11 02:29:20;;;;;;;0.60;0.60;;;15.00;81.70;;;15.09;68.03;94741.75;4979340;28;20200;-80
2022/09/11 02:31:48;;;;;;;0.60;0.60;;;15.00;81.70;;;15.23;67.94;94750.28;4996241;28;20299;-80
2022/09/11 02:34:25;;;;;;;0.60;0.60;;;15.10;81.70;;;15.27;67.41;94740.06;5011413;28;20457;-80
2022/09/11 02:37:11;;;;;;;0.60;0.60;;;15.20;81.70;;;15.34;67.61;94738.97;4994495;28;20228;-81
2022/09/11 02:40:25;;;;;;;0.50;0.50;;;15.20;81.70;;;15.39;67.55;94746.19;5017683;28;20287;-80
2022/09/11 02:43:15;;;;;;;0.60;0.60;;;15.30;81.70;;;15.45;67.61;94736.56;5002285;28;20221;-79
2022/09/11 02:46:07;;;;;;;0.50;0.50;;;15.40;81.70;;;15.49;67.72;94732.41;5023946;28;20213;-80
2022/09/11 02:48:55;;;;;;;0.60;0.60;;;15.50;81.60;;;15.55;67.62;94736.00;5010720;28;20217;-80
2022/09/11 02:51:33;;;;;;;0.60;0.60;;;15.50;81.50;;;15.60;67.72;94734.28;5010954;28;20226;-80
2022/09/11 02:54:21;;;;;;;0.60;0.60;;;15.60;81.60;;;15.65;67.64;94739.69;4990023;28;20242;-81
2022/09/11 02:57:06;;;;;;;0.60;0.60;;;15.60;81.40;;;15.68;67.67;94733.16;5014270;28;20709;-80
2022/09/11 02:59:44;;;;;;;0.80;0.80;;;15.70;81.40;;;15.71;67.65;94734.53;4977198;28;20200;-80
2022/09/11 03:02:14;;;;;;;0.80;0.80;;;15.80;82.20;;;15.77;67.55;94736.25;5021464;28;20297;-81
2022/09/11 03:04:41;;;;;;;0.50;0.50;;;15.70;81.30;;;15.81;67.59;94734.78;5030709;28;20299;-80
2022/09/11 03:07:08;;;;;;;0.60;0.60;;;15.80;81.30;;;15.84;67.23;94735.16;5013553;28;20252;-80
2022/09/11 03:09:37;;;;;;;0.70;0.70;;;15.80;81.30;;;15.90;67.23;94740.56;4998260;28;20251;-81
2022/09/11 03:12:11;;;;;;;0.60;0.60;;;15.90;81.40;;;15.92;67.37;94751.72;5006754;28;20254;-80
2022/09/11 03:14:39;;;;;;;0.60;0.60;;;16.00;81.50;;;15.96;67.24;94752.88;5014185;28;20226;-80
2022/09/11 03:17:06;;;;;;;0.60;0.60;;;15.90;81.30;;;15.97;67.55;94749.19;4996217;28;20220;-81
2022/09/11 03:19:35;;;;;;;0.50;0.50;;;16.00;81.40;;;16.05;66.88;94748.88;5010554;28;20279;-80
2022/09/11 03:22:02;;;;;;;0.60;0.60;;;16.00;81.30;;;16.07;67.21;94746.78;5004107;28;20295;-80
2022/09/11 03:24:29;;;;;;;0.50;0.50;;;16.00;81.30;;;16.07;67.42;94741.47;4998228;28;20235;-80
2022/09/11 03:26:56;;;;;;;0.60;0.60;;;16.10;82.10;;;16.11;67.18;94747.94;5015732;28;20678;-80
2022/09/11 03:29:23;;;;;;;0.70;0.70;;;16.20;81.40;;;16.16;66.84;94755.16;5016746;28;20236;-81
2022/09/11 03:31:52;;;;;;;0.57;0.57;;;16.10;81.30;;;16.12;67.10;94749.53;5011606;28;20304;-80
2022/09/11 03:34:19;;;;;;;0.57;0.57;;;16.20;81.30;;;16.07;67.52;94752.06;4997627;28;20208;-80
2022/09/11 03:36:47;;;;;;;0.60;0.60;;;16.20;81.20;;;16.08;67.39;94755.53;4995623;28;20682;-79
2022/09/11 03:39:14;;;;;;;0.60;0.60;;;16.20;81.10;;;16.07;67.21;94753.91;4981194;28;20573;-80
2022/09/11 03:41:41;;;;;;;0.60;0.60;;;16.20;81.10;;;16.04;67.10;94755.19;4987164;28;20251;-80
2022/09/11 03:44:08;;;;;;;0.60;0.60;;;16.20;81.10;;;15.97;67.56;94743.91;5012409;28;20205;-80
2022/09/11 03:46:35;;;;;;;0.60;0.60;;;16.20;81.10;;;15.99;67.52;94758.50;5015539;28;20208;-81
2022/09/11 03:49:03;;;;;;;0.60;0.60;;;16.10;81.10;;;15.98;67.58;94750.81;5012440;28;20232;-80
2022/09/11 03:51:30;;;;;;;0.70;0.70;;;16.10;81.20;;;15.97;67.35;94742.06;4997824;28;20228;-82
2022/09/11 03:53:59;;;;;;;0.60;0.60;;;16.00;81.20;;;15.97;67.62;94751.84;5011946;28;20203;-82
2022/09/11 03:56:28;;;;;;;0.60;0.60;;;16.00;81.30;;;15.96;67.47;94744.94;4995746;28;20302;-82
2022/09/11 03:58:58;;;;;;;0.60;0.60;;;16.00;82.10;;;15.96;67.74;94742.28;5027961;28;20208;-80
2022/09/11 04:01:27;;;;;;;0.50;0.50;;;16.00;81.40;;;15.97;67.76;94746.56;5011946;28;20213;-80
2022/09/11 04:03:55;;;;;;;0.60;0.60;;;16.00;81.50;;;15.96;67.59;94743.09;4989545;28;20621;-80
2022/09/11 04:06:34;;;;;;;0.60;0.60;;;16.00;81.50;;;15.98;67.60;94750.81;5013052;28;20699;-81
2022/09/11 04:09:02;;;;;;;0.50;0.50;;;16.00;82.30;;;15.97;67.96;94738.63;4980172;28;20308;-81
2022/09/11 04:11:30;;;;;;;0.60;0.60;;;16.00;81.50;;;15.98;67.82;94741.03;4995072;28;20757;-82
2022/09/11 04:14:06;;;;;;;0.60;0.60;;;16.00;81.60;;;15.97;67.88;94746.56;5001325;28;20219;-81
2022/09/11 04:16:34;;;;;;;0.60;0.60;;;16.00;81.60;;;15.94;68.16;94742.53;5004161;28;20220;-80
2022/09/11 04:19:05;;;;;;;0.60;0.60;;;16.00;81.60;;;15.96;67.95;94747.59;4995495;28;20201;-79
2022/09/11 04:21:33;;;;;;;0.50;0.50;;;16.00;81.70;;;15.96;67.69;94740.44;5013553;28;20689;-81
2022/09/11 04:24:01;;;;;;;0.50;0.50;;;16.00;81.70;;;15.97;67.67;94749.19;5015462;28;20227;-81
2022/09/11 04:26:31;;;;;;;0.60;0.60;;;16.00;81.70;;;15.95;68.17;94740.69;5030760;28;20234;-79
2022/09/11 04:29:12;;;;;;;0.50;0.50;;;16.00;81.70;;;15.93;67.80;94743.56;4998604;28;20224;-80
2022/09/11 04:31:40;;;;;;;0.60;0.60;;;16.00;81.70;;;15.96;67.70;94748.38;4996809;28;20218;-80
2022/09/11 04:34:10;;;;;;;0.50;0.50;;;16.00;81.70;;;15.95;67.91;94738.84;4995974;28;20199;-81
2022/09/11 04:36:37;;;;;;;0.60;0.60;;;16.00;81.70;;;15.95;68.39;94735.38;5016200;28;20247;-79
2022/09/11 04:39:13;;;;;;;0.60;0.60;;;16.00;81.80;;;15.97;67.76;94733.31;5005271;28;20207;-81
2022/09/11 04:41:40;;;;;;;0.60;0.60;;;16.00;81.80;;;15.97;67.84;94735.97;5009764;28;20315;-83
2022/09/11 04:44:07;;;;;;;0.70;0.70;;;16.00;81.70;;;15.97;67.98;94738.63;4996718;28;20204;-82
2022/09/11 04:46:41;;;;;;;0.55;0.55;;;16.00;81.70;;;15.95;67.85;94741.50;4997139;28;20224;-83
2022/09/11 04:49:10;;;;;;;0.60;0.60;;;16.00;81.70;;;15.98;68.14;94741.03;4996684;28;20302;-82
2022/09/11 04:51:39;;;;;;;0.50;0.50;;;16.00;81.80;;;15.99;68.19;94734.72;4998002;28;20307;-82
2022/09/11 04:54:14;;;;;;;0.60;0.60;;;16.00;81.80;;;15.98;68.05;94733.09;4998710;28;20210;-83
2022/09/11 04:56:41;;;;;;;0.50;0.50;;;16.00;81.80;;;16.03;67.95;94731.59;5025739;28;20223;-82
2022/09/11 04:59:14;;;;;;;0.60;0.60;;;16.00;81.80;;;16.04;68.09;94731.38;5012991;28;20203;-82
2022/09/11 05:01:51;;;;;;;0.60;0.60;;;16.00;81.90;;;16.04;67.74;94735.84;5007632;28;20232;-83
2022/09/11 05:04:18;;;;;;;0.60;0.60;;;16.00;81.90;;;16.04;68.35;94741.13;5028562;28;20655;-82
2022/09/11 05:06:53;;;;;;;0.52;0.52;;;16.10;81.90;;;16.00;68.38;94738.97;5010544;28;20223;-83
2022/09/11 05:09:20;;;;;;;0.60;0.60;;;16.10;81.90;;;16.00;68.05;94741.59;4994908;28;20629;-82
2022/09/11 05:11:49;;;;;;;0.60;0.60;;;16.10;81.80;;;16.03;68.35;94743.00;5003560;28;20229;-82
2022/09/11 05:14:17;;;;;;;0.50;0.50;;;16.10;81.80;;;15.99;67.95;94742.63;5008094;28;20240;-82
2022/09/11 05:16:46;;;;;;;0.60;0.60;;;16.10;81.90;;;16.04;68.28;94746.44;4998189;28;20224;-83
2022/09/11 05:19:16;;;;;;;0.60;0.60;;;16.10;81.80;;;16.05;68.16;94754.16;4996040;28;20564;-83
2022/09/11 05:21:44;;;;;;;0.60;0.60;;;16.10;81.80;;;16.04;68.28;94741.13;4995713;28;20710;-82
2022/09/11 05:24:11;;;;;;;0.50;0.50;;;16.10;81.90;;;16.05;68.38;94750.69;5025545;28;20243;-83
2022/09/11 05:26:39;;;;;;;0.50;0.50;;;16.10;82.00;;;16.07;68.59;94760.00;4995614;28;20213;-82
2022/09/11 05:29:13;;;;;;;0.50;0.50;;;16.10;82.00;;;16.08;68.07;94764.25;4993962;28;20299;-81
2022/09/11 05:31:51;;;;;;;0.60;0.60;;;16.10;82.10;;;16.14;68.29;94765.19;5012037;28;20213;-84
2022/09/11 05:34:21;;;;;;;0.52;0.52;;;16.20;82.20;;;16.13;68.42;94764.38;4987086;28;20255;-83
2022/09/11 05:36:49;;;;;;;0.50;0.50;;;16.20;82.20;;;16.12;68.33;94768.03;5015330;28;20217;-82
2022/09/11 05:39:16;;;;;;;0.55;0.55;;;16.20;82.10;;;16.13;68.54;94764.38;5017985;28;20208;-83
2022/09/11 05:41:43;;;;;;;0.50;0.50;;;16.30;82.20;;;16.14;68.49;94770.47;4994701;28;20217;-83
2022/09/11 05:44:12;;;;;;;0.60;0.60;;;16.30;82.10;;;16.21;68.30;94780.94;4979619;28;20209;-83
2022/09/11 05:46:39;;;;;;;0.50;0.50;;;16.30;82.00;;;16.21;68.26;94773.00;5010320;28;20267;-83
2022/09/11 05:49:07;;;;;;;0.70;0.70;;;16.30;82.10;;;16.25;68.38;94780.25;4979524;28;20231;-83
2022/09/11 05:51:36;;;;;;;0.70;0.70;;;16.40;82.10;;;16.30;68.47;94782.22;5001825;28;20216;-82
2022/09/11 05:54:04;;;;;;;0.60;0.60;;;16.40;82.20;;;16.32;68.34;94775.66;5010580;28;20218;-82
2022/09/11 05:56:33;;;;;;;0.60;0.60;;;16.40;82.20;;;16.39;68.57;94777.38;5001020;28;20311;-83
2022/09/11 05:59:13;;;;;;;0.50;0.50;;;16.40;82.10;;;16.40;67.95;94777.13;5010760;28;20207;-83
2022/09/11 06:01:42;;;;;;;0.50;0.50;;;16.50;82.20;;;16.41;68.28;94773.44;4993851;28;20581;-83
2022/09/11 06:04:17;;;;;;;0.60;0.60;;;16.50;82.20;;;16.44;68.06;94780.94;5028780;28;20214;-84
2022/09/11 06:06:47;;;;;;;0.60;0.60;;;16.50;82.10;;;16.47;68.28;94780.47;5019666;28;20223;-83
2022/09/11 06:09:16;;;;;;;0.50;0.50;;;16.50;82.00;;;16.52;68.22;94782.44;5011991;28;20331;-82
2022/09/11 06:11:43;;;;;;;0.55;0.55;;;16.60;82.00;;;16.52;68.02;94794.88;5014379;28;20216;-82
2022/09/11 06:14:12;;;;;;;0.50;0.50;;;16.60;81.80;;;16.48;67.61;94784.72;5030039;28;20570;-83
2022/09/11 06:16:41;;;;;;;0.55;0.55;;;16.60;81.80;;;16.41;68.19;94781.41;5001026;28;20579;-82
2022/09/11 06:19:11;;;;;;;0.40;0.40;;;16.60;81.70;;;16.47;67.93;94783.13;5009311;28;20208;-83
2022/09/11 06:21:39;;;;;;;0.60;0.60;;;16.70;81.80;;;16.51;68.37;94783.47;4979467;28;20311;-81
2022/09/11 06:24:22;;;;;;;0.50;0.50;;;16.70;81.90;;;16.57;67.92;94782.53;4997111;28;20203;-82
2022/09/11 06:26:50;;;;;;;0.50;0.50;;;16.70;81.90;;;16.61;67.61;94794.28;5011514;28;20610;-81
2022/09/11 06:29:18;;;;;;;0.50;0.50;;;16.70;81.90;;;16.61;67.85;94791.63;5010814;28;20259;-82
2022/09/11 06:31:50;;;;;;;0.50;0.50;;;16.70;81.70;;;16.67;67.72;94792.53;4995584;28;20311;-81
2022/09/11 06:34:21;;;;;;;0.57;0.57;;;16.80;81.60;;;16.67;67.89;94795.19;5010431;28;20669;-82
2022/09/11 06:36:49;;;;;;;0.60;0.60;;;16.80;81.70;;;16.72;67.79;94795.31;5001383;28;20226;-80
2022/09/11 06:39:25;;;;;;;0.50;0.50;;;16.80;81.70;;;16.79;67.86;94792.50;5026639;28;20235;-82
2022/09/11 06:41:53;;;;;;;0.50;0.50;;;16.80;81.80;;;16.84;67.87;94791.81;4999149;28;20223;-80
2022/09/11 06:44:26;;;;;;;0.50;0.50;;;16.90;81.60;;;16.87;67.80;94792.16;5016353;28;20211;-81
2022/09/11 06:46:58;;;;;;;0.50;0.50;;;16.90;82.50;;;16.91;67.96;94780.03;5010541;28;20248;-81
2022/09/11 06:49:26;;;;;;;0.50;0.50;;;17.00;81.80;;;17.05;67.97;94791.22;5014442;28;20232;-81
2022/09/11 06:52:19;;;;;;;0.60;0.60;;;17.10;82.10;;;17.11;67.75;94784.97;5032713;28;20232;-80
2022/09/11 06:55:00;;;;;;;0.50;0.50;;;17.10;82.10;;;17.19;67.36;94780.34;4992280;28;20263;-80
2022/09/11 06:57:29;;;;;;;0.50;0.50;;;17.20;81.80;;;17.21;67.60;94770.28;5014922;28;20231;-82
2022/09/11 06:59:56;;;;;;;0.50;0.50;;;17.30;81.60;;;17.31;66.93;94777.63;5017429;28;20270;-81
2022/09/11 07:02:24;;;;;;;0.50;0.50;;;17.40;81.40;;;17.29;66.96;94786.63;5024014;28;20248;-81
2022/09/11 07:04:53;;;;;;;0.60;0.60;;;17.40;81.10;;;17.28;66.78;94787.69;4998037;28;20213;-81
2022/09/11 07:07:24;;;;;;;0.55;0.55;;;17.40;80.80;;;17.29;66.41;94791.13;4997467;28;20685;-81
2022/09/11 07:09:51;;;;;;;0.50;0.50;;;17.40;80.70;;;17.28;66.94;94785.03;4998257;28;20710;-81
2022/09/11 07:12:21;;;;;;;0.50;0.50;;;17.40;80.80;;;17.31;67.22;94793.53;5017944;28;20252;-81
2022/09/11 07:14:50;;;;;;;0.50;0.50;;;17.40;80.90;;;17.32;66.91;94787.19;4998540;28;20220;-82
2022/09/11 07:17:18;;;;;;;0.50;0.50;;;17.40;81.10;;;17.32;66.59;94788.00;5013905;28;20631;-80
2022/09/11 07:19:49;;;;;;;0.50;0.50;;;17.50;81.00;;;17.32;66.92;94789.84;5018657;28;20238;-81
2022/09/11 07:22:16;;;;;;;0.52;0.52;;;17.50;80.70;;;17.27;66.37;94799.31;5010874;28;20252;-81
2022/09/11 07:24:46;;;;;;;0.50;0.50;;;17.50;80.50;;;17.25;66.63;94800.59;4981475;28;20200;-81
2022/09/11 07:27:14;;;;;;;0.60;0.60;;;17.50;80.60;;;17.19;67.05;94802.34;4988556;28;20594;-82
2022/09/11 07:29:43;;;;;;;0.52;0.52;;;17.40;80.50;;;17.15;67.39;94803.03;4986616;28;20232;-82
2022/09/11 07:32:11;;;;;;;0.57;0.57;;;17.30;80.50;;;17.14;67.19;94807.56;5027752;28;20223;-82
2022/09/11 07:34:39;;;;;;;0.60;0.60;;;17.30;80.90;;;17.12;67.38;94813.09;4999871;28;20208;-81
2022/09/11 07:37:09;;;;;;;0.50;0.50;;;17.30;81.00;;;17.13;67.24;94819.97;5012728;28;20239;-82
2022/09/11 07:39:38;;;;;;;0.50;0.50;;;17.30;81.10;;;17.14;66.93;94820.81;5001215;28;20223;-83
2022/09/11 07:42:12;;;;;;;0.60;0.60;;;17.30;81.20;;;17.16;67.66;94820.56;5016901;28;20251;-82
2022/09/11 07:44:41;;;;;;;0.50;0.50;;;17.30;81.20;;;17.18;67.35;94824.59;4995327;28;20236;-82
2022/09/11 07:47:08;;;;;;;0.57;0.57;;;17.30;81.30;;;17.17;67.18;94815.00;5019526;28;20231;-82
2022/09/11 07:49:41;;;;;;;0.52;0.52;;;17.30;81.30;;;17.17;67.65;94822.97;4997441;28;20258;-81
2022/09/11 07:52:08;;;;;;;0.50;0.50;;;17.30;81.40;;;17.17;67.48;94819.53;5001393;28;20223;-82
2022/09/11 07:54:49;;;;;;;0.50;0.50;;;17.30;81.40;;;17.13;67.36;94822.63;5052746;28;20615;-82
2022/09/11 07:57:20;;;;;;;0.50;0.50;;;17.30;81.50;;;17.16;67.76;94829.31;5009348;28;20225;-82
2022/09/11 07:59:49;;;;;;;0.50;0.50;;;17.20;81.40;;;17.12;67.34;94834.28;5028362;28;20200;-82
2022/09/11 08:02:16;;;;;;;0.50;0.50;;;17.20;81.40;;;17.14;67.60;94839.34;5032043;28;20734;-82
2022/09/11 08:04:46;;;;;;;0.50;0.50;;;17.20;81.40;;;17.15;67.83;94840.16;4996926;28;20228;-82
2022/09/11 08:07:13;;;;;;;0.50;0.50;;;17.20;81.60;;;17.17;67.66;94840.72;5027867;28;20310;-82
2022/09/11 08:09:40;;;;;;;0.55;0.55;;;17.20;81.80;;;17.15;67.51;94843.63;5005217;28;20687;-82
2022/09/11 08:12:09;;;;;;;0.55;0.55;;;17.20;81.60;;;17.17;67.49;94838.06;4981018;28;20240;-82
2022/09/11 08:14:37;;;;;;;0.50;0.50;;;17.20;81.70;;;17.20;67.56;94848.19;5021787;28;20220;-82
2022/09/11 08:17:15;;;;;;;0.52;0.52;;;17.20;81.80;;;17.24;67.52;94850.16;5001830;28;20259;-82
2022/09/11 08:19:43;;;;;;;0.60;0.60;;;17.30;82.00;;;17.30;67.58;94845.75;5001107;28;20216;-82
2022/09/11 08:22:11;;;;;;;0.50;0.50;;;17.30;82.20;;;17.37;67.84;94843.78;4983543;28;20279;-81
2022/09/11 08:24:44;;;;;;;0.50;0.50;;;17.40;82.50;;;17.49;68.17;94850.88;4993560;28;20240;-82
2022/09/11 08:27:14;;;;;;;0.60;0.60;;;17.40;82.30;;;17.59;68.01;94849.22;5001815;28;20225;-82
2022/09/11 08:29:44;;;;;;;0.50;0.50;;;17.50;82.50;;;17.73;68.21;94857.69;4980429;28;20225;-83
2022/09/11 08:32:12;;;;;;;0.50;0.50;;;17.60;82.90;;;17.86;68.04;94855.78;4994328;28;20230;-83
2022/09/11 08:34:39;;;;;;;0.50;0.50;;;17.80;82.60;;;18.00;67.79;94853.66;5023801;28;20212;-82
2022/09/11 08:37:07;;;;;;;0.50;0.50;;;17.90;82.60;;;18.10;67.60;94858.34;4997417;28;20773;-83
2022/09/11 08:39:34;;;;;;;0.40;0.40;;;18.00;82.60;;;18.21;67.90;94847.66;4996453;28;20212;-84
2022/09/11 08:42:12;;;;;;;0.50;0.50;;;18.10;82.40;;;18.40;67.51;94858.03;5000980;28;20625;-82
2022/09/11 08:44:51;;;;;;;0.50;0.50;;;18.30;82.00;;;18.49;66.45;94842.47;5029706;28;20269;-82
2022/09/11 08:47:27;;;;;;;0.47;0.47;;;18.50;81.40;;;18.67;66.75;94852.84;5011894;28;20319;-82
2022/09/11 08:50:25;;;;;;;0.50;0.50;;;18.60;81.60;;;18.77;65.45;94840.75;5016957;28;20693;-82
2022/09/11 08:52:55;;;;;;;0.50;0.50;;;18.80;80.90;;;18.86;65.00;94845.41;5015831;28;20306;-83
2022/09/11 08:55:39;;;;;;;0.40;0.40;;;18.90;80.60;;;18.96;65.46;94834.13;4980479;28;20204;-82
2022/09/11 08:58:26;;;;;;;0.40;0.40;;;19.10;79.70;;;19.12;65.55;94837.78;5002676;28;20644;-82
2022/09/11 09:01:17;;;;;;;0.40;0.40;;;19.20;79.90;;;19.29;65.51;94836.91;4995298;28;20241;-83
2022/09/11 09:04:08;;;;;;;0.60;0.60;;;19.40;80.20;;;19.37;64.69;94841.78;4990878;28;20294;-82
2022/09/11 09:07:09;;;;;;;0.40;0.40;;;19.50;79.60;;;19.45;64.70;94841.34;5000780;28;20223;-81
2022/09/11 09:10:16;;;;;;;0.40;0.40;;;19.60;79.50;;;19.48;62.95;94843.53;5014928;28;20298;-81
2022/09/11 09:13:07;;;;;;;0.45;0.45;;;19.70;78.90;;;19.46;62.56;94842.16;5011733;28;20220;-80
2022/09/11 09:15:48;;;;;;;0.50;0.50;;;19.70;77.40;;;19.38;62.51;94846.03;5000241;28;20234;-80
2022/09/11 09:18:24;;;;;;;0.50;0.50;;;19.70;77.50;;;19.30;62.66;94839.31;4996911;28;20231;-80
2022/09/11 09:21:15;;;;;;;0.45;0.45;;;19.70;77.50;;;19.23;63.00;94841.38;4996296;28;20216;-80
2022/09/11 09:23:50;;;;;;;0.47;0.47;;;19.60;77.10;;;19.23;63.23;94851.22;4983704;28;20291;-80
2022/09/11 09:26:18;;;;;;;0.50;0.50;;;19.60;77.50;;;19.16;63.53;94846.88;5022253;28;20234;-81
2022/09/11 09:28:54;;;;;;;0.40;0.40;;;19.50;77.80;;;19.17;62.44;94855.66;5003436;28;20211;-80
2022/09/11 09:31:29;;;;;;;0.40;0.40;;;19.50;77.30;;;19.17;63.08;94847.69;5016083;28;20220;-81
2022/09/11 09:34:07;;;;;;;0.40;0.40;;;19.40;77.60;;;19.19;63.76;94846.38;5007231;28;20674;-81
2022/09/11 09:36:58;;;;;;;0.40;0.40;;;19.40;78.00;;;19.28;63.19;94852.06;5007929;28;20322;-81
2022/09/11 09:39:26;;;;;;;0.50;0.50;;;19.50;77.70;;;19.32;63.53;94841.72;5015288;28;20666;-81
2022/09/11 09:42:03;;;;;;;0.50;0.50;;;19.50;78.30;;;19.39;62.75;94854.84;5002225;28;20789;-81
2022/09/11 09:44:54;;;;;;;0.40;0.40;;;19.50;77.70;;;19.44;63.50;94858.34;5013873;28;20213;-80
2022/09/11 09:47:21;;;;;;;0.50;0.50;;;19.60;77.40;;;19.48;62.97;94858.66;4999082;28;20698;-79
2022/09/11 09:49:50;;;;;;;0.45;0.45;;;19.60;78.00;;;19.54;63.37;94854.22;5000591;28;20714;-79
2022/09/11 09:52:34;;;;;;;0.40;0.40;;;19.70;78.00;;;19.58;63.23;94856.13;5014927;28;20227;-79
2022/09/11 09:55:16;;;;;;;0.40;0.40;;;19.80;77.90;;;19.64;63.46;94857.78;5004976;28;20279;-79
2022/09/11 09:57:44;;;;;;;0.40;0.40;;;19.90;77.80;;;19.70;63.29;94850.66;4975751;28;20237;-79
2022/09/11 10:00:14;;;;;;;0.45;0.45;;;19.90;78.00;;;19.82;63.49;94853.16;4989322;28;20216;-79
2022/09/11 10:02:55;;;;;;;0.40;0.40;;;20.00;77.90;;;19.91;63.39;94845.53;4972925;28;20226;-80
2022/09/11 10:05:28;;;;;;;0.50;0.50;;;20.00;77.70;;;20.05;63.86;94852.06;5029154;28;20562;-80
2022/09/11 10:08:24;;;;;;;0.40;0.40;;;20.20;78.30;;;20.17;62.94;94846.59;4990777;28;20227;-80
2022/09/11 10:11:27;;;;;;;0.40;0.40;;;20.30;78.00;;;20.29;58.17;94847.22;4991463;28;20248;-79
2022/09/11 10:13:56;;;;;;;0.50;0.50;;;20.50;75.60;;;20.39;59.32;94851.81;4990349;28;20246;-79
2022/09/11 10:16:25;;;;;;;0.45;0.45;;;20.60;75.70;;;20.46;59.31;94852.41;4984273;28;20230;-80
2022/09/11 10:18:54;;;;;;;0.50;0.50;;;20.70;75.50;;;20.62;59.89;94845.31;4980553;28;20211;-80
2022/09/11 10:21:32;;;;;;;0.40;0.40;;;20.80;75.60;;;20.77;60.20;94846.50;4994896;28;20314;-79
2022/09/11 10:24:08;;;;;;;0.40;0.40;;;20.90;75.60;;;20.87;58.92;94859.09;4986745;28;20215;-80
2022/09/11 10:26:44;;;;;;;0.35;0.35;;;21.10;75.40;;;20.93;57.50;94847.38;5008329;28;20238;-81
2022/09/11 10:29:18;;;;;;;0.40;0.40;;;21.20;74.10;;;20.98;57.69;94849.28;4986733;28;20677;-79
2022/09/11 10:32:01;;;;;;;0.30;0.30;;;21.30;73.70;;;21.06;58.00;94862.13;4979221;28;21572;-80
2022/09/11 10:34:39;;;;;;;0.45;0.45;;;21.40;74.00;;;21.04;57.61;94851.69;4986616;28;20590;-79
2022/09/11 10:37:22;;;;;;;0.45;0.45;;;21.40;73.00;;;21.02;58.69;94845.03;4987622;28;20224;-79
2022/09/11 10:39:50;;;;;;;0.50;0.50;;;21.50;74.00;;;21.02;57.41;94853.03;5030456;28;20669;-81
2022/09/11 10:42:26;;;;;;;0.50;0.50;;;21.40;74.00;;;20.97;57.41;94855.66;5004415;28;20242;-81
2022/09/11 10:45:07;;;;;;;0.50;0.50;;;21.40;72.80;;;20.86;57.47;94849.47;5034241;28;20215;-81
2022/09/11 10:47:35;;;;;;;0.50;0.50;;;21.30;72.80;;;20.77;57.27;94855.28;5027083;28;20218;-79
2022/09/11 10:50:19;;;;;;;0.40;0.40;;;21.20;72.80;;;20.68;57.66;94851.47;5014105;28;20648;-80